sensor_id;sensor_type;location;lat;lon;timestamp;temperature;humidity
73277;DHT22;61501;43.316;5.372;2022-12-29T00:02:13;14.40;99.90
73277;DHT22;61501;43.316;5.372;2022-12-29T00:04:44;14.40;99.90
73277;DHT22;61501;43.316;5.372;2022-12-29T00:07:11;14.40;99.90
73277;DHT22;61501;43.316;5.372;2022-12-29T00:09:37;14.30;99.90
73277;DHT22;61501;43.316;5.372;2022-12-29T00:12:06;14.40;99.90
73277;DHT22;61501;43.316;5.372;2022-12-29T00:14:34;14.40;99.90
73277;DHT22;61501;43.316;5.372;2022-12-29T00:17:18;14.30;99.90
73277;DHT22;61501;43.316;5.372;2022-12-29T00:19:46;14.30;99.90
73277;DHT22;61501;43.316;5.372;2022-12-29T00:22:33;14.30;99.90
73277;DHT22;61501;43.316;5.372;2022-12-29T00:25:17;14.30;99.90
73277;DHT22;61501;43.316;5.372;2022-12-29T00:28:01;14.20;99.90
73277;DHT22;61501;43.316;5.372;2022-12-29T00:30:45;14.20;99.90
73277;DHT22;61501;43.316;5.372;2022-12-29T00:33:31;14.30;99.90
73277;DHT22;61501;43.316;5.372;2022-12-29T00:36:31;14.20;99.90
73277;DHT22;61501;43.316;5.372;2022-12-29T00:39:05;14.30;99.90
73277;DHT22;61501;43.316;5.372;2022-12-29T00:41:50;14.30;99.90
73277;DHT22;61501;43.316;5.372;2022-12-29T00:44:34;14.20;99.90
73277;DHT22;61501;43.316;5.372;2022-12-29T00:47:00;14.20;99.90
73277;DHT22;61501;43.316;5.372;2022-12-29T00:49:30;14.20;99.90
73277;DHT22;61501;43.316;5.372;2022-12-29T00:52:10;14.20;99.90
73277;DHT22;61501;43.316;5.372;2022-12-29T00:54:37;14.20;99.90
73277;DHT22;61501;43.316;5.372;2022-12-29T00:57:05;14.20;99.90
73277;DHT22;61501;43.316;5.372;2022-12-29T00:59:31;14.20;99.90
73277;DHT22;61501;43.316;5.372;2022-12-29T01:01:57;14.20;99.90
73277;DHT22;61501;43.316;5.372;2022-12-29T01:04:25;14.10;99.90
73277;DHT22;61501;43.316;5.372;2022-12-29T01:06:51;14.10;99.90
73277;DHT22;61501;43.316;5.372;2022-12-29T01:09:18;14.00;99.90
73277;DHT22;61501;43.316;5.372;2022-12-29T01:12:06;14.10;99.90
73277;DHT22;61501;43.316;5.372;2022-12-29T01:14:32;14.00;99.90
73277;DHT22;61501;43.316;5.372;2022-12-29T01:16:57;14.00;99.90
73277;DHT22;61501;43.316;5.372;2022-12-29T01:19:23;13.90;99.90
73277;DHT22;61501;43.316;5.372;2022-12-29T01:21:49;13.90;99.90
73277;DHT22;61501;43.316;5.372;2022-12-29T01:24:21;13.90;99.90
73277;DHT22;61501;43.316;5.372;2022-12-29T01:26:47;13.90;99.90
73277;DHT22;61501;43.316;5.372;2022-12-29T01:29:13;13.80;99.90
73277;DHT22;61501;43.316;5.372;2022-12-29T01:31:39;13.90;99.90
73277;DHT22;61501;43.316;5.372;2022-12-29T01:34:05;13.90;99.90
73277;DHT22;61501;43.316;5.372;2022-12-29T01:36:31;14.00;99.90
73277;DHT22;61501;43.316;5.372;2022-12-29T01:38:57;14.10;99.90
73277;DHT22;61501;43.316;5.372;2022-12-29T01:41:23;14.10;99.90
73277;DHT22;61501;43.316;5.372;2022-12-29T01:43:54;14.20;99.90
73277;DHT22;61501;43.316;5.372;2022-12-29T01:48:52;14.10;99.90
73277;DHT22;61501;43.316;5.372;2022-12-29T01:51:20;14.10;99.90
73277;DHT22;61501;43.316;5.372;2022-12-29T01:53:48;14.20;99.90
73277;DHT22;61501;43.316;5.372;2022-12-29T01:56:17;14.20;99.90
73277;DHT22;61501;43.316;5.372;2022-12-29T01:58:47;14.20;99.90
73277;DHT22;61501;43.316;5.372;2022-12-29T02:01:15;14.20;99.90
73277;DHT22;61501;43.316;5.372;2022-12-29T02:03:43;14.20;99.90
73277;DHT22;61501;43.316;5.372;2022-12-29T02:06:17;14.20;99.90
73277;DHT22;61501;43.316;5.372;2022-12-29T02:08:43;14.20;99.90
73277;DHT22;61501;43.316;5.372;2022-12-29T02:11:11;14.30;99.90
73277;DHT22;61501;43.316;5.372;2022-12-29T02:13:38;14.30;99.90
73277;DHT22;61501;43.316;5.372;2022-12-29T02:35:32;14.60;99.90
73277;DHT22;61501;43.316;5.372;2022-12-29T02:38:15;14.60;99.90
73277;DHT22;61501;43.316;5.372;2022-12-29T02:41:03;14.60;99.90
73277;DHT22;61501;43.316;5.372;2022-12-29T02:43:57;14.50;99.90
73277;DHT22;61501;43.316;5.372;2022-12-29T02:46:47;14.50;99.90
73277;DHT22;61501;43.316;5.372;2022-12-29T02:49:22;14.40;99.90
73277;DHT22;61501;43.316;5.372;2022-12-29T02:51:58;14.40;99.90
73277;DHT22;61501;43.316;5.372;2022-12-29T02:54:26;14.40;99.90
73277;DHT22;61501;43.316;5.372;2022-12-29T02:59:51;14.20;99.90
73277;DHT22;61501;43.316;5.372;2022-12-29T03:03:10;14.30;99.90
73277;DHT22;61501;43.316;5.372;2022-12-29T03:08:24;14.40;99.90
73277;DHT22;61501;43.316;5.372;2022-12-29T03:11:00;14.30;99.90
73277;DHT22;61501;43.316;5.372;2022-12-29T03:13:44;14.40;99.90
73277;DHT22;61501;43.316;5.372;2022-12-29T03:16:48;14.40;99.90
73277;DHT22;61501;43.316;5.372;2022-12-29T03:19:24;14.40;99.90
73277;DHT22;61501;43.316;5.372;2022-12-29T03:21:55;14.40;99.90
73277;DHT22;61501;43.316;5.372;2022-12-29T03:24:43;14.40;99.90
73277;DHT22;61501;43.316;5.372;2022-12-29T03:27:16;14.40;99.90
73277;DHT22;61501;43.316;5.372;2022-12-29T03:29:47;14.30;99.90
73277;DHT22;61501;43.316;5.372;2022-12-29T03:32:20;14.30;99.90
73277;DHT22;61501;43.316;5.372;2022-12-29T03:34:47;14.20;99.90
73277;DHT22;61501;43.316;5.372;2022-12-29T03:37:17;14.20;99.90
73277;DHT22;61501;43.316;5.372;2022-12-29T03:39:43;14.20;99.90
73277;DHT22;61501;43.316;5.372;2022-12-29T03:42:21;14.20;99.90
73277;DHT22;61501;43.316;5.372;2022-12-29T03:44:53;14.20;99.90
73277;DHT22;61501;43.316;5.372;2022-12-29T03:47:20;14.20;99.90
73277;DHT22;61501;43.316;5.372;2022-12-29T03:49:46;14.20;99.90
73277;DHT22;61501;43.316;5.372;2022-12-29T03:52:12;14.20;99.90
73277;DHT22;61501;43.316;5.372;2022-12-29T03:54:38;14.20;99.90
73277;DHT22;61501;43.316;5.372;2022-12-29T03:57:04;14.10;99.90
73277;DHT22;61501;43.316;5.372;2022-12-29T03:59:29;14.10;99.90
73277;DHT22;61501;43.316;5.372;2022-12-29T04:01:55;14.10;99.90
73277;DHT22;61501;43.316;5.372;2022-12-29T04:04:20;14.20;99.90
73277;DHT22;61501;43.316;5.372;2022-12-29T04:06:46;14.20;99.90
73277;DHT22;61501;43.316;5.372;2022-12-29T04:09:12;14.20;99.90
73277;DHT22;61501;43.316;5.372;2022-12-29T04:11:37;14.20;99.90
73277;DHT22;61501;43.316;5.372;2022-12-29T04:14:03;14.20;99.90
73277;DHT22;61501;43.316;5.372;2022-12-29T04:16:29;14.20;99.90
73277;DHT22;61501;43.316;5.372;2022-12-29T04:18:54;14.20;99.90
73277;DHT22;61501;43.316;5.372;2022-12-29T04:21:20;14.20;99.90
73277;DHT22;61501;43.316;5.372;2022-12-29T04:23:45;14.20;99.90
73277;DHT22;61501;43.316;5.372;2022-12-29T04:26:11;14.20;99.90
73277;DHT22;61501;43.316;5.372;2022-12-29T04:28:38;14.20;99.90
73277;DHT22;61501;43.316;5.372;2022-12-29T04:31:04;14.20;99.90
73277;DHT22;61501;43.316;5.372;2022-12-29T04:33:30;14.20;99.90
73277;DHT22;61501;43.316;5.372;2022-12-29T04:35:55;14.20;99.90
73277;DHT22;61501;43.316;5.372;2022-12-29T04:38:22;14.30;99.90
73277;DHT22;61501;43.316;5.372;2022-12-29T04:40:48;14.30;99.90
73277;DHT22;61501;43.316;5.372;2022-12-29T04:43:14;14.30;99.90
73277;DHT22;61501;43.316;5.372;2022-12-29T04:45:45;14.30;99.90
73277;DHT22;61501;43.316;5.372;2022-12-29T04:48:10;14.30;99.90
73277;DHT22;61501;43.316;5.372;2022-12-29T04:50:37;14.40;99.90
73277;DHT22;61501;43.316;5.372;2022-12-29T04:53:02;14.30;99.90
73277;DHT22;61501;43.316;5.372;2022-12-29T04:55:28;14.30;99.90
73277;DHT22;61501;43.316;5.372;2022-12-29T04:57:54;14.30;99.90
73277;DHT22;61501;43.316;5.372;2022-12-29T05:00:19;14.20;99.90
73277;DHT22;61501;43.316;5.372;2022-12-29T05:02:45;14.30;99.90
73277;DHT22;61501;43.316;5.372;2022-12-29T05:05:11;14.30;99.90
73277;DHT22;61501;43.316;5.372;2022-12-29T05:07:36;14.40;99.90
73277;DHT22;61501;43.316;5.372;2022-12-29T05:10:03;14.30;99.90
73277;DHT22;61501;43.316;5.372;2022-12-29T05:12:33;14.40;99.90
73277;DHT22;61501;43.316;5.372;2022-12-29T05:14:59;14.30;99.90
73277;DHT22;61501;43.316;5.372;2022-12-29T05:17:26;14.30;99.90
73277;DHT22;61501;43.316;5.372;2022-12-29T05:19:51;14.40;99.90
73277;DHT22;61501;43.316;5.372;2022-12-29T05:22:17;14.30;99.90
73277;DHT22;61501;43.316;5.372;2022-12-29T05:24:43;14.30;99.90
73277;DHT22;61501;43.316;5.372;2022-12-29T05:27:08;14.30;99.90
73277;DHT22;61501;43.316;5.372;2022-12-29T05:29:34;14.40;99.90
73277;DHT22;61501;43.316;5.372;2022-12-29T05:32:00;14.40;99.90
73277;DHT22;61501;43.316;5.372;2022-12-29T05:34:25;14.40;99.90
73277;DHT22;61501;43.316;5.372;2022-12-29T05:36:52;14.40;99.90
73277;DHT22;61501;43.316;5.372;2022-12-29T05:39:18;14.50;99.90
73277;DHT22;61501;43.316;5.372;2022-12-29T05:41:43;14.40;99.90
73277;DHT22;61501;43.316;5.372;2022-12-29T05:44:10;14.40;99.90
73277;DHT22;61501;43.316;5.372;2022-12-29T05:46:36;14.40;99.90
73277;DHT22;61501;43.316;5.372;2022-12-29T05:49:01;14.50;99.90
73277;DHT22;61501;43.316;5.372;2022-12-29T05:51:27;14.50;99.90
73277;DHT22;61501;43.316;5.372;2022-12-29T05:53:53;14.50;99.90
73277;DHT22;61501;43.316;5.372;2022-12-29T05:56:18;14.40;99.90
73277;DHT22;61501;43.316;5.372;2022-12-29T05:58:44;14.40;99.90
73277;DHT22;61501;43.316;5.372;2022-12-29T06:01:09;14.40;99.90
73277;DHT22;61501;43.316;5.372;2022-12-29T06:03:35;14.30;99.90
73277;DHT22;61501;43.316;5.372;2022-12-29T06:06:01;14.30;99.90
73277;DHT22;61501;43.316;5.372;2022-12-29T06:08:26;14.20;99.90
73277;DHT22;61501;43.316;5.372;2022-12-29T06:10:52;14.30;99.90
73277;DHT22;61501;43.316;5.372;2022-12-29T06:13:18;14.30;99.90
73277;DHT22;61501;43.316;5.372;2022-12-29T06:15:43;14.20;99.90
73277;DHT22;61501;43.316;5.372;2022-12-29T06:18:09;14.30;99.90
73277;DHT22;61501;43.316;5.372;2022-12-29T06:20:35;14.30;99.90
73277;DHT22;61501;43.316;5.372;2022-12-29T06:23:00;14.30;99.90
73277;DHT22;61501;43.316;5.372;2022-12-29T06:25:26;14.30;99.90
73277;DHT22;61501;43.316;5.372;2022-12-29T06:27:52;14.20;99.90
73277;DHT22;61501;43.316;5.372;2022-12-29T06:30:17;14.20;99.90
73277;DHT22;61501;43.316;5.372;2022-12-29T06:32:43;14.10;99.90
73277;DHT22;61501;43.316;5.372;2022-12-29T06:35:09;14.10;99.90
73277;DHT22;61501;43.316;5.372;2022-12-29T06:37:35;14.00;99.90
73277;DHT22;61501;43.316;5.372;2022-12-29T06:40:01;14.10;99.90
73277;DHT22;61501;43.316;5.372;2022-12-29T06:42:27;14.10;99.90
73277;DHT22;61501;43.316;5.372;2022-12-29T06:44:53;14.20;99.90
73277;DHT22;61501;43.316;5.372;2022-12-29T06:47:18;14.20;99.90
73277;DHT22;61501;43.316;5.372;2022-12-29T06:49:44;14.10;99.90
73277;DHT22;61501;43.316;5.372;2022-12-29T06:52:10;14.00;99.90
73277;DHT22;61501;43.316;5.372;2022-12-29T06:54:36;14.00;99.90
73277;DHT22;61501;43.316;5.372;2022-12-29T06:57:02;14.00;99.90
73277;DHT22;61501;43.316;5.372;2022-12-29T06:59:27;14.00;99.90
73277;DHT22;61501;43.316;5.372;2022-12-29T07:01:53;14.00;99.90
73277;DHT22;61501;43.316;5.372;2022-12-29T07:04:19;14.00;99.90
73277;DHT22;61501;43.316;5.372;2022-12-29T07:06:45;13.90;99.90
73277;DHT22;61501;43.316;5.372;2022-12-29T07:09:11;13.90;99.90
73277;DHT22;61501;43.316;5.372;2022-12-29T07:11:36;13.90;99.90
73277;DHT22;61501;43.316;5.372;2022-12-29T07:14:03;14.00;99.90
73277;DHT22;61501;43.316;5.372;2022-12-29T07:16:28;14.00;99.90
73277;DHT22;61501;43.316;5.372;2022-12-29T07:18:56;14.00;99.90
73277;DHT22;61501;43.316;5.372;2022-12-29T07:21:22;14.10;99.90
73277;DHT22;61501;43.316;5.372;2022-12-29T07:23:48;14.10;99.90
73277;DHT22;61501;43.316;5.372;2022-12-29T07:26:14;14.20;99.90
73277;DHT22;61501;43.316;5.372;2022-12-29T07:28:43;14.20;99.90
73277;DHT22;61501;43.316;5.372;2022-12-29T07:31:20;14.30;99.90
73277;DHT22;61501;43.316;5.372;2022-12-29T07:33:46;14.30;99.90
73277;DHT22;61501;43.316;5.372;2022-12-29T07:36:15;14.40;99.90
73277;DHT22;61501;43.316;5.372;2022-12-29T07:38:42;14.40;99.90
73277;DHT22;61501;43.316;5.372;2022-12-29T07:41:08;14.40;99.90
73277;DHT22;61501;43.316;5.372;2022-12-29T07:43:34;14.40;99.90
73277;DHT22;61501;43.316;5.372;2022-12-29T07:45:59;14.40;99.90
73277;DHT22;61501;43.316;5.372;2022-12-29T07:48:25;14.40;99.90
73277;DHT22;61501;43.316;5.372;2022-12-29T07:50:52;14.40;99.90
73277;DHT22;61501;43.316;5.372;2022-12-29T07:53:20;14.50;99.90
73277;DHT22;61501;43.316;5.372;2022-12-29T07:55:52;14.50;99.90
73277;DHT22;61501;43.316;5.372;2022-12-29T07:58:23;14.60;99.90
73277;DHT22;61501;43.316;5.372;2022-12-29T08:00:53;14.60;99.90
73277;DHT22;61501;43.316;5.372;2022-12-29T08:03:19;14.70;99.90
73277;DHT22;61501;43.316;5.372;2022-12-29T08:05:45;14.80;99.90
73277;DHT22;61501;43.316;5.372;2022-12-29T08:08:10;14.80;99.90
73277;DHT22;61501;43.316;5.372;2022-12-29T08:10:36;14.80;99.90
73277;DHT22;61501;43.316;5.372;2022-12-29T08:13:02;14.80;99.90
73277;DHT22;61501;43.316;5.372;2022-12-29T08:15:27;14.70;99.90
73277;DHT22;61501;43.316;5.372;2022-12-29T08:17:53;14.80;99.90
73277;DHT22;61501;43.316;5.372;2022-12-29T08:20:18;14.80;99.90
73277;DHT22;61501;43.316;5.372;2022-12-29T08:22:44;14.70;99.90
73277;DHT22;61501;43.316;5.372;2022-12-29T08:25:10;14.70;99.90
73277;DHT22;61501;43.316;5.372;2022-12-29T08:27:35;14.60;99.90
73277;DHT22;61501;43.316;5.372;2022-12-29T08:30:01;14.60;99.90
73277;DHT22;61501;43.316;5.372;2022-12-29T08:32:27;14.50;99.90
73277;DHT22;61501;43.316;5.372;2022-12-29T08:34:53;14.60;99.90
73277;DHT22;61501;43.316;5.372;2022-12-29T08:37:19;14.60;99.90
73277;DHT22;61501;43.316;5.372;2022-12-29T08:39:45;14.70;99.90
73277;DHT22;61501;43.316;5.372;2022-12-29T08:42:10;14.80;99.90
73277;DHT22;61501;43.316;5.372;2022-12-29T08:44:36;14.80;99.90
73277;DHT22;61501;43.316;5.372;2022-12-29T08:47:02;14.90;99.90
73277;DHT22;61501;43.316;5.372;2022-12-29T08:49:28;14.90;99.90
73277;DHT22;61501;43.316;5.372;2022-12-29T08:51:53;14.90;99.90
73277;DHT22;61501;43.316;5.372;2022-12-29T08:54:19;14.90;99.90
73277;DHT22;61501;43.316;5.372;2022-12-29T08:56:44;15.00;99.90
73277;DHT22;61501;43.316;5.372;2022-12-29T08:59:10;15.10;99.90
73277;DHT22;61501;43.316;5.372;2022-12-29T09:01:36;15.10;99.90
73277;DHT22;61501;43.316;5.372;2022-12-29T09:04:06;15.20;99.90
73277;DHT22;61501;43.316;5.372;2022-12-29T09:06:32;15.20;99.90
73277;DHT22;61501;43.316;5.372;2022-12-29T09:08:57;15.20;99.90
73277;DHT22;61501;43.316;5.372;2022-12-29T09:11:25;15.40;99.90
73277;DHT22;61501;43.316;5.372;2022-12-29T09:13:52;15.50;99.90
73277;DHT22;61501;43.316;5.372;2022-12-29T09:16:18;15.50;99.90
73277;DHT22;61501;43.316;5.372;2022-12-29T09:18:45;15.70;99.90
73277;DHT22;61501;43.316;5.372;2022-12-29T09:21:12;15.70;99.90
73277;DHT22;61501;43.316;5.372;2022-12-29T09:23:38;15.70;99.90
73277;DHT22;61501;43.316;5.372;2022-12-29T09:26:04;15.60;99.90
73277;DHT22;61501;43.316;5.372;2022-12-29T09:28:30;15.80;99.90
73277;DHT22;61501;43.316;5.372;2022-12-29T09:30:57;15.80;99.90
73277;DHT22;61501;43.316;5.372;2022-12-29T09:33:23;15.80;99.90
73277;DHT22;61501;43.316;5.372;2022-12-29T09:35:54;15.80;99.90
73277;DHT22;61501;43.316;5.372;2022-12-29T09:38:20;15.70;99.90
73277;DHT22;61501;43.316;5.372;2022-12-29T09:40:50;15.80;99.90
73277;DHT22;61501;43.316;5.372;2022-12-29T09:46:40;15.90;99.90
73277;DHT22;61501;43.316;5.372;2022-12-29T09:51:32;15.70;99.90
73277;DHT22;61501;43.316;5.372;2022-12-29T09:54:27;15.80;99.90
73277;DHT22;61501;43.316;5.372;2022-12-29T09:56:49;15.90;99.90
73277;DHT22;61501;43.316;5.372;2022-12-29T09:59:24;15.90;99.90
73277;DHT22;61501;43.316;5.372;2022-12-29T10:02:20;16.10;99.90
73277;DHT22;61501;43.316;5.372;2022-12-29T10:04:47;16.10;99.90
73277;DHT22;61501;43.316;5.372;2022-12-29T10:07:38;16.20;99.90
73277;DHT22;61501;43.316;5.372;2022-12-29T10:10:25;16.40;99.90
73277;DHT22;61501;43.316;5.372;2022-12-29T10:21:30;17.30;99.90
73277;DHT22;61501;43.316;5.372;2022-12-29T10:23:59;17.60;99.90
73277;DHT22;61501;43.316;5.372;2022-12-29T10:26:36;17.70;99.90
73277;DHT22;61501;43.316;5.372;2022-12-29T10:29:03;17.70;99.90
73277;DHT22;61501;43.316;5.372;2022-12-29T10:31:43;17.70;99.90
73277;DHT22;61501;43.316;5.372;2022-12-29T10:34:26;18.00;99.90
73277;DHT22;61501;43.316;5.372;2022-12-29T10:36:58;18.30;99.90
73277;DHT22;61501;43.316;5.372;2022-12-29T10:39:45;18.30;99.90
73277;DHT22;61501;43.316;5.372;2022-12-29T10:42:37;18.10;99.90
73277;DHT22;61501;43.316;5.372;2022-12-29T10:45:05;18.00;99.90
73277;DHT22;61501;43.316;5.372;2022-12-29T10:47:49;17.90;99.90
73277;DHT22;61501;43.316;5.372;2022-12-29T10:50:17;17.90;99.90
73277;DHT22;61501;43.316;5.372;2022-12-29T10:52:43;18.00;99.90
73277;DHT22;61501;43.316;5.372;2022-12-29T10:55:17;18.30;99.90
73277;DHT22;61501;43.316;5.372;2022-12-29T10:57:45;18.40;99.90
73277;DHT22;61501;43.316;5.372;2022-12-29T11:00:18;18.10;99.90
73277;DHT22;61501;43.316;5.372;2022-12-29T11:08:41;17.50;99.90
73277;DHT22;61501;43.316;5.372;2022-12-29T11:11:10;17.50;99.90
73277;DHT22;61501;43.316;5.372;2022-12-29T11:13:50;17.40;99.90
73277;DHT22;61501;43.316;5.372;2022-12-29T11:16:34;17.50;99.90
73277;DHT22;61501;43.316;5.372;2022-12-29T11:19:02;17.70;99.90
73277;DHT22;61501;43.316;5.372;2022-12-29T11:21:33;17.90;99.90
73277;DHT22;61501;43.316;5.372;2022-12-29T11:24:04;18.10;99.90
73277;DHT22;61501;43.316;5.372;2022-12-29T11:26:32;18.40;99.90
73277;DHT22;61501;43.316;5.372;2022-12-29T11:31:29;18.60;99.90
73277;DHT22;61501;43.316;5.372;2022-12-29T11:33:55;18.10;99.90
73277;DHT22;61501;43.316;5.372;2022-12-29T11:36:23;17.50;99.90
73277;DHT22;61501;43.316;5.372;2022-12-29T11:38:54;17.30;99.90
73277;DHT22;61501;43.316;5.372;2022-12-29T11:41:31;17.50;99.90
73277;DHT22;61501;43.316;5.372;2022-12-29T11:44:01;17.70;99.90
73277;DHT22;61501;43.316;5.372;2022-12-29T11:46:37;17.90;99.90
73277;DHT22;61501;43.316;5.372;2022-12-29T11:49:13;17.90;99.90
73277;DHT22;61501;43.316;5.372;2022-12-29T11:51:44;18.00;99.90
73277;DHT22;61501;43.316;5.372;2022-12-29T11:54:36;17.70;99.90
73277;DHT22;61501;43.316;5.372;2022-12-29T11:57:11;17.50;99.90
73277;DHT22;61501;43.316;5.372;2022-12-29T11:59:41;17.70;99.90
73277;DHT22;61501;43.316;5.372;2022-12-29T12:04:58;17.70;99.90
73277;DHT22;61501;43.316;5.372;2022-12-29T12:07:52;17.70;99.90
73277;DHT22;61501;43.316;5.372;2022-12-29T12:10:41;17.80;99.90
73277;DHT22;61501;43.316;5.372;2022-12-29T12:13:37;18.30;99.90
73277;DHT22;61501;43.316;5.372;2022-12-29T12:16:19;18.50;99.90
73277;DHT22;61501;43.316;5.372;2022-12-29T12:18:55;18.70;99.90
73277;DHT22;61501;43.316;5.372;2022-12-29T12:21:26;19.00;99.90
73277;DHT22;61501;43.316;5.372;2022-12-29T12:26:59;19.50;99.90
73277;DHT22;61501;43.316;5.372;2022-12-29T12:29:42;20.00;96.90
73277;DHT22;61501;43.316;5.372;2022-12-29T12:32:27;20.20;91.20
73277;DHT22;61501;43.316;5.372;2022-12-29T12:34:55;20.90;92.30
73277;DHT22;61501;43.316;5.372;2022-12-29T12:37:33;21.70;87.50
73277;DHT22;61501;43.316;5.372;2022-12-29T12:40:20;21.20;87.60
73277;DHT22;61501;43.316;5.372;2022-12-29T12:43:23;20.10;92.30
73277;DHT22;61501;43.316;5.372;2022-12-29T13:00:04;18.80;98.60
73277;DHT22;61501;43.316;5.372;2022-12-29T13:08:31;18.50;99.90
73277;DHT22;61501;43.316;5.372;2022-12-29T13:14:12;18.80;99.90
73277;DHT22;61501;43.316;5.372;2022-12-29T13:17:25;19.10;99.90
73277;DHT22;61501;43.316;5.372;2022-12-29T13:20:31;19.50;97.10
73277;DHT22;61501;43.316;5.372;2022-12-29T13:23:03;20.40;92.90
73277;DHT22;61501;43.316;5.372;2022-12-29T13:28:37;20.60;90.40
73277;DHT22;61501;43.316;5.372;2022-12-29T13:31:15;21.40;89.40
73277;DHT22;61501;43.316;5.372;2022-12-29T13:38:59;23.10;77.20
73277;DHT22;61501;43.316;5.372;2022-12-29T13:43:58;23.40;79.20
73277;DHT22;61501;43.316;5.372;2022-12-29T13:46:30;23.90;74.50
73277;DHT22;61501;43.316;5.372;2022-12-29T13:49:05;23.70;68.00
73277;DHT22;61501;43.316;5.372;2022-12-29T13:51:33;23.30;67.10
73277;DHT22;61501;43.316;5.372;2022-12-29T13:59:50;18.20;96.30
73277;DHT22;61501;43.316;5.372;2022-12-29T14:02:42;17.20;99.90
73277;DHT22;61501;43.316;5.372;2022-12-29T14:07:48;16.40;99.90
73277;DHT22;61501;43.316;5.372;2022-12-29T14:10:34;16.10;99.90
73277;DHT22;61501;43.316;5.372;2022-12-29T14:13:23;15.90;99.90
73277;DHT22;61501;43.316;5.372;2022-12-29T14:15:59;15.80;99.90
73277;DHT22;61501;43.316;5.372;2022-12-29T14:18:30;15.80;99.90
73277;DHT22;61501;43.316;5.372;2022-12-29T14:23:43;15.80;99.90
73277;DHT22;61501;43.316;5.372;2022-12-29T14:26:14;15.60;99.90
73277;DHT22;61501;43.316;5.372;2022-12-29T14:28:48;15.50;99.90
73277;DHT22;61501;43.316;5.372;2022-12-29T14:33:40;15.60;99.90
73277;DHT22;61501;43.316;5.372;2022-12-29T14:36:26;15.60;99.90
73277;DHT22;61501;43.316;5.372;2022-12-29T14:38:58;15.60;99.90
73277;DHT22;61501;43.316;5.372;2022-12-29T14:41:29;15.70;99.90
73277;DHT22;61501;43.316;5.372;2022-12-29T14:49:25;16.10;99.90
73277;DHT22;61501;43.316;5.372;2022-12-29T14:52:04;16.10;99.90
73277;DHT22;61501;43.316;5.372;2022-12-29T14:54:40;16.00;99.90
73277;DHT22;61501;43.316;5.372;2022-12-29T14:57:12;16.10;99.90
73277;DHT22;61501;43.316;5.372;2022-12-29T14:59:39;16.30;99.90
73277;DHT22;61501;43.316;5.372;2022-12-29T15:02:16;16.40;99.90
73277;DHT22;61501;43.316;5.372;2022-12-29T15:04:44;16.50;99.90
73277;DHT22;61501;43.316;5.372;2022-12-29T15:07:11;16.50;99.90
73277;DHT22;61501;43.316;5.372;2022-12-29T15:09:42;16.40;99.90
73277;DHT22;61501;43.316;5.372;2022-12-29T15:14:59;16.00;99.90
73277;DHT22;61501;43.316;5.372;2022-12-29T15:17:31;15.80;99.90
73277;DHT22;61501;43.316;5.372;2022-12-29T15:20:22;15.70;99.90
73277;DHT22;61501;43.316;5.372;2022-12-29T15:22:48;15.70;99.90
73277;DHT22;61501;43.316;5.372;2022-12-29T15:25:16;15.60;99.90
73277;DHT22;61501;43.316;5.372;2022-12-29T15:27:51;15.60;99.90
73277;DHT22;61501;43.316;5.372;2022-12-29T15:30:21;15.70;99.90
73277;DHT22;61501;43.316;5.372;2022-12-29T15:32:48;15.80;99.90
73277;DHT22;61501;43.316;5.372;2022-12-29T15:38:00;15.70;99.90
73277;DHT22;61501;43.316;5.372;2022-12-29T15:40:29;15.60;99.90
73277;DHT22;61501;43.316;5.372;2022-12-29T15:45:38;15.70;99.90
73277;DHT22;61501;43.316;5.372;2022-12-29T15:48:05;15.60;99.90
73277;DHT22;61501;43.316;5.372;2022-12-29T15:50:35;15.60;99.90
73277;DHT22;61501;43.316;5.372;2022-12-29T15:53:03;15.60;99.90
73277;DHT22;61501;43.316;5.372;2022-12-29T15:55:36;15.50;99.90
73277;DHT22;61501;43.316;5.372;2022-12-29T15:58:05;15.50;99.90
73277;DHT22;61501;43.316;5.372;2022-12-29T16:00:35;15.50;99.90
73277;DHT22;61501;43.316;5.372;2022-12-29T16:03:05;15.40;99.90
73277;DHT22;61501;43.316;5.372;2022-12-29T16:05:38;15.30;99.90
73277;DHT22;61501;43.316;5.372;2022-12-29T16:10:56;15.20;99.90
73277;DHT22;61501;43.316;5.372;2022-12-29T16:16:18;15.10;99.90
73277;DHT22;61501;43.316;5.372;2022-12-29T16:18:45;15.00;99.90
73277;DHT22;61501;43.316;5.372;2022-12-29T16:21:25;15.00;99.90
73277;DHT22;61501;43.316;5.372;2022-12-29T16:23:55;14.90;99.90
73277;DHT22;61501;43.316;5.372;2022-12-29T16:26:24;14.90;99.90
73277;DHT22;61501;43.316;5.372;2022-12-29T16:28:54;14.80;99.90
73277;DHT22;61501;43.316;5.372;2022-12-29T16:31:32;14.80;99.90
73277;DHT22;61501;43.316;5.372;2022-12-29T16:34:52;14.80;99.90
73277;DHT22;61501;43.316;5.372;2022-12-29T16:37:01;14.80;99.90
73277;DHT22;61501;43.316;5.372;2022-12-29T16:39:39;14.80;99.90
73277;DHT22;61501;43.316;5.372;2022-12-29T16:50:33;14.80;99.90
73277;DHT22;61501;43.316;5.372;2022-12-29T16:52:59;14.80;99.90
73277;DHT22;61501;43.316;5.372;2022-12-29T16:55:25;14.80;99.90
73277;DHT22;61501;43.316;5.372;2022-12-29T16:57:52;14.80;99.90
73277;DHT22;61501;43.316;5.372;2022-12-29T17:00:23;14.80;99.90
73277;DHT22;61501;43.316;5.372;2022-12-29T17:02:50;14.80;99.90
73277;DHT22;61501;43.316;5.372;2022-12-29T17:05:18;14.80;99.90
73277;DHT22;61501;43.316;5.372;2022-12-29T17:07:44;14.80;99.90
73277;DHT22;61501;43.316;5.372;2022-12-29T17:10:11;14.80;99.90
73277;DHT22;61501;43.316;5.372;2022-12-29T17:12:38;14.90;99.90
73277;DHT22;61501;43.316;5.372;2022-12-29T17:15:14;14.90;99.90
73277;DHT22;61501;43.316;5.372;2022-12-29T17:17:44;14.90;99.90
73277;DHT22;61501;43.316;5.372;2022-12-29T17:20:19;14.90;99.90
73277;DHT22;61501;43.316;5.372;2022-12-29T17:22:45;15.00;99.90
73277;DHT22;61501;43.316;5.372;2022-12-29T17:25:16;15.00;99.90
73277;DHT22;61501;43.316;5.372;2022-12-29T17:27:44;15.00;99.90
73277;DHT22;61501;43.316;5.372;2022-12-29T17:30:17;15.00;99.90
73277;DHT22;61501;43.316;5.372;2022-12-29T17:32:48;15.00;99.90
73277;DHT22;61501;43.316;5.372;2022-12-29T17:35:16;15.00;99.90
73277;DHT22;61501;43.316;5.372;2022-12-29T17:37:43;15.00;99.90
73277;DHT22;61501;43.316;5.372;2022-12-29T17:40:14;15.00;99.90
73277;DHT22;61501;43.316;5.372;2022-12-29T17:42:48;15.00;99.90
73277;DHT22;61501;43.316;5.372;2022-12-29T17:45:20;15.00;99.90
73277;DHT22;61501;43.316;5.372;2022-12-29T17:47:46;14.90;99.90
73277;DHT22;61501;43.316;5.372;2022-12-29T17:50:14;15.00;99.90
73277;DHT22;61501;43.316;5.372;2022-12-29T17:52:41;15.00;99.90
73277;DHT22;61501;43.316;5.372;2022-12-29T17:55:14;15.00;99.90
73277;DHT22;61501;43.316;5.372;2022-12-29T17:57:40;15.00;99.90
73277;DHT22;61501;43.316;5.372;2022-12-29T18:00:08;15.00;99.90
73277;DHT22;61501;43.316;5.372;2022-12-29T18:02:34;14.90;99.90
73277;DHT22;61501;43.316;5.372;2022-12-29T18:05:00;14.90;99.90